Northern Expedition — CFN5364 — position and weather

sailwx.info

Track history (hours):
 
Tides and Currents Weather Stations Pressure Air Temp Water Temp Dewpoint Dewpoint Depression Visibility Wind Speed Wind Dir Waves Ship Positions

Northern Expedition

Last reported at 2016-Mar-26 15:33 UTC. Time now 2016-May-03 20:06 UTC.
Position N 49°07' W 123°05'.
Warning: this ship's position is 38 days out of date.

Length 151 m; draft 5 m.

Type: Passenger vessel. MMSI: 316014054.

Date/timePositionNaut miles runAvg speedWind from/ knotsBaromVisibWave heightAir tempDewpointWater temp
2016-Mar-26 15:33N 49°07' W 123°05'0 0.2
2016-Mar-26 14:33N 49°07' W 123°05'9 8.7
2016-Mar-26 13:33N 49°06' W 123°18'1110.9
2016-Mar-26 12:33N 49°17' W 123°20'3 2.8
2016-Mar-26 11:33N 49°18' W 123°15'0 0.0
2016-Mar-26 10:33N 49°18' W 123°15'0 0.0
2016-Mar-26 09:33N 49°18' W 123°15'0 0.0
2016-Mar-26 08:33N 49°18' W 123°15'0 0.0
2016-Mar-26 07:33N 49°18' W 123°15'8 8.2
2016-Mar-26 06:33N 49°16' W 123°27'8 8.1
2016-Mar-26 05:33N 49°19' W 123°16'3 2.9
2016-Mar-26 04:33N 49°19' W 123°12'5 4.7
2016-Mar-26 03:33N 49°18' W 123°05'0 0.0
2016-Mar-26 02:33N 49°18' W 123°05'  
Track history (hours):
 
Tides and Currents Weather Stations Pressure Air Temp Water Temp Dewpoint Dewpoint Depression Visibility Wind Speed Wind Dir Waves Ship Positions

Northern Expedition

Last reported at 2016-Mar-26 15:33 UTC. Time now 2016-May-03 20:06 UTC.
Position N 49°07' W 123°05'.
Warning: this ship's position is 38 days out of date.

Length 151 m; draft 5 m.

Type: Passenger vessel. MMSI: 316014054.

Date/timePositionNaut miles runAvg speedWind from/ knotsBaromVisibWave heightAir tempDewpointWater temp
2016-Mar-26 15:33N 49°07' W 123°05'0 0.2
2016-Mar-26 14:33N 49°07' W 123°05'9 8.7
2016-Mar-26 13:33N 49°06' W 123°18'1110.9
2016-Mar-26 12:33N 49°17' W 123°20'3 2.8
2016-Mar-26 11:33N 49°18' W 123°15'0 0.0
2016-Mar-26 10:33N 49°18' W 123°15'0 0.0
2016-Mar-26 09:33N 49°18' W 123°15'0 0.0
2016-Mar-26 08:33N 49°18' W 123°15'0 0.0
2016-Mar-26 07:33N 49°18' W 123°15'8 8.2
2016-Mar-26 06:33N 49°16' W 123°27'8 8.1
2016-Mar-26 05:33N 49°19' W 123°16'3 2.9
2016-Mar-26 04:33N 49°19' W 123°12'5 4.7
2016-Mar-26 03:33N 49°18' W 123°05'0 0.0
2016-Mar-26 02:33N 49°18' W 123°05'  

Dump ship's entire track history